createdAt,value
2019-04-06T00:02:33.399Z,11.57
2019-04-06T00:05:22.769Z,8.68
2019-04-06T00:08:12.811Z,9.30
2019-04-06T00:11:02.557Z,11.53
2019-04-06T00:13:52.152Z,10.30
2019-04-06T00:16:41.513Z,12.43
2019-04-06T00:19:31.181Z,11.03
2019-04-06T00:22:20.327Z,11.88
2019-04-06T00:25:11.554Z,11.68
2019-04-06T00:28:00.799Z,8.20
2019-04-06T00:31:13.530Z,10.25
2019-04-06T00:34:02.945Z,10.55
2019-04-06T00:36:52.963Z,11.65
2019-04-06T00:39:42.146Z,11.15
2019-04-06T00:42:31.605Z,11.38
2019-04-06T00:45:21.452Z,10.68
2019-04-06T00:48:11.237Z,11.48
2019-04-06T00:51:01.056Z,13.05
2019-04-06T00:53:50.079Z,11.95
2019-04-06T00:56:40.138Z,13.80
2019-04-06T00:59:30.060Z,12.03
2019-04-06T01:02:20.248Z,18.10
2019-04-06T01:05:09.219Z,14.90
2019-04-06T01:07:58.837Z,13.05
2019-04-06T01:10:48.513Z,16.93
2019-04-06T01:13:38.292Z,13.22
2019-04-06T01:16:28.106Z,21.40
2019-04-06T01:19:18.260Z,17.42
2019-04-06T01:22:07.415Z,18.45
2019-04-06T01:24:57.113Z,15.68
2019-04-06T01:27:46.780Z,15.50
2019-04-06T01:30:35.927Z,16.80
2019-04-06T01:33:25.516Z,14.18
2019-04-06T01:36:14.910Z,19.73
2019-04-06T01:39:05.728Z,17.52
2019-04-06T01:41:55.516Z,19.40
2019-04-06T01:44:44.899Z,17.48
2019-04-06T01:47:34.371Z,16.05
2019-04-06T01:50:23.765Z,15.65
2019-04-06T01:53:12.624Z,16.20
2019-04-06T01:56:03.046Z,19.02
2019-04-06T01:58:52.200Z,17.95
2019-04-06T02:01:53.416Z,20.48
2019-04-06T02:04:42.529Z,21.68
2019-04-06T02:07:32.216Z,19.57
2019-04-06T02:10:21.979Z,18.40
2019-04-06T02:13:11.607Z,22.85
2019-04-06T02:16:01.778Z,22.07
2019-04-06T02:18:50.859Z,19.75
2019-04-06T02:21:40.389Z,21.12
2019-04-06T02:24:30.402Z,22.52
2019-04-06T02:27:20.120Z,24.47
2019-04-06T02:30:24.529Z,20.72
2019-04-06T02:33:39.423Z,21.90
2019-04-06T02:37:02.518Z,23.40
2019-04-06T02:39:59.527Z,25.20
2019-04-06T02:42:52.381Z,26.50
2019-04-06T02:45:41.952Z,28.40
2019-04-06T02:48:30.732Z,24.98
2019-04-06T02:51:19.963Z,25.30
2019-04-06T02:54:09.621Z,29.42
2019-04-06T02:56:59.483Z,25.97
2019-04-06T02:59:48.923Z,24.52
2019-04-06T03:02:38.874Z,24.15
2019-04-06T03:05:28.365Z,24.18
2019-04-06T03:08:17.492Z,23.38
2019-04-06T03:11:07.363Z,25.68
2019-04-06T03:13:56.599Z,22.82
2019-04-06T03:16:45.741Z,26.45
2019-04-06T03:19:35.067Z,26.57
2019-04-06T03:22:24.632Z,24.45
2019-04-06T03:25:14.585Z,28.65
2019-04-06T03:28:03.778Z,24.65
2019-04-06T03:30:53.513Z,28.65
2019-04-06T03:33:43.253Z,24.77
2019-04-06T03:36:32.955Z,24.52
2019-04-06T03:39:23.080Z,27.00
2019-04-06T03:42:12.024Z,24.75
2019-04-06T03:45:01.768Z,26.68
2019-04-06T03:47:51.476Z,27.77
2019-04-06T03:50:41.106Z,29.72
2019-04-06T03:53:30.773Z,28.02
2019-04-06T03:56:19.726Z,27.85
2019-04-06T03:59:09.136Z,29.32
2019-04-06T04:01:57.893Z,29.70
2019-04-06T04:04:47.651Z,27.73
2019-04-06T04:07:36.729Z,26.75
2019-04-06T04:10:41.138Z,28.70
2019-04-06T04:13:30.796Z,27.30
2019-04-06T04:16:20.735Z,28.25
2019-04-06T04:19:10.529Z,31.20
2019-04-06T04:21:59.929Z,29.57
2019-04-06T04:24:49.267Z,26.95
2019-04-06T04:27:40.803Z,29.02
2019-04-06T04:30:33.113Z,33.70
2019-04-06T04:33:20.831Z,32.78
2019-04-06T04:36:10.196Z,32.98
2019-04-06T04:39:00.020Z,33.38
2019-04-06T04:41:48.873Z,28.15
2019-04-06T04:44:37.673Z,30.43
2019-04-06T04:47:27.003Z,33.83
2019-04-06T04:50:16.452Z,31.93
2019-04-06T04:53:06.034Z,31.70
2019-04-06T04:55:55.546Z,31.42
2019-04-06T04:58:45.081Z,34.98
2019-04-06T05:01:34.259Z,30.15
2019-04-06T05:04:24.587Z,32.05
2019-04-06T05:07:14.296Z,34.33
2019-04-06T05:10:03.796Z,34.08
2019-04-06T05:12:53.743Z,34.23
2019-04-06T05:16:11.644Z,35.35
2019-04-06T05:21:49.356Z,34.92
2019-04-06T05:24:38.154Z,35.52
2019-04-06T05:27:27.617Z,34.40
2019-04-06T05:30:17.023Z,36.70
2019-04-06T05:33:05.745Z,38.05
2019-04-06T05:35:55.458Z,34.60
2019-04-06T05:38:44.686Z,37.55
2019-04-06T05:41:33.614Z,36.68
2019-04-06T05:44:23.359Z,36.83
2019-04-06T05:47:13.358Z,38.42
2019-04-06T05:50:02.581Z,36.95
2019-04-06T05:52:52.219Z,39.70
2019-04-06T05:55:41.139Z,37.03
2019-04-06T05:58:30.874Z,39.63
2019-04-06T06:01:20.261Z,43.08
2019-04-06T06:04:10.791Z,37.23
2019-04-06T06:07:01.495Z,41.85
2019-04-06T06:09:50.777Z,39.78
2019-04-06T06:12:40.270Z,41.73
2019-04-06T06:15:29.039Z,40.23
2019-04-06T06:18:26.382Z,41.10
2019-04-06T06:21:09.545Z,43.25
2019-04-06T06:23:59.065Z,41.77
2019-04-06T06:26:48.537Z,37.80
2019-04-06T06:29:37.813Z,42.93
2019-04-06T06:32:27.694Z,39.85
2019-04-06T06:35:16.960Z,44.05
2019-04-06T06:38:06.636Z,42.17
2019-04-06T06:40:57.848Z,42.50
2019-04-06T06:43:47.107Z,41.90
2019-04-06T06:46:36.578Z,48.40
2019-04-06T06:49:25.713Z,40.58
2019-04-06T06:52:14.931Z,37.95
2019-04-06T06:55:04.507Z,44.85
2019-04-06T06:57:53.872Z,47.98
2019-04-06T07:00:44.089Z,46.88
2019-04-06T07:03:32.868Z,42.98
2019-04-06T07:06:22.795Z,50.80
2019-04-06T07:09:12.111Z,56.48
2019-04-06T07:12:02.052Z,56.25
2019-04-06T07:14:51.063Z,55.98
2019-04-06T07:17:40.148Z,52.58
2019-04-06T07:20:29.253Z,49.98
2019-04-06T07:23:18.825Z,52.20
2019-04-06T07:26:07.564Z,51.77
2019-04-06T07:28:56.927Z,48.40
2019-04-06T07:31:47.556Z,55.25
2019-04-06T07:34:37.357Z,54.65
2019-04-06T07:37:27.004Z,58.25
2019-04-06T07:40:17.222Z,55.50
2019-04-06T07:43:06.419Z,56.68
2019-04-06T07:45:56.001Z,53.05
2019-04-06T07:48:46.490Z,49.73
2019-04-06T07:51:35.770Z,51.45
2019-04-06T07:54:24.907Z,62.62
2019-04-06T07:57:14.439Z,61.30
2019-04-06T08:00:04.627Z,55.65
2019-04-06T08:02:53.914Z,51.80
2019-04-06T08:05:43.198Z,58.60
2019-04-06T08:08:32.949Z,65.08
2019-04-06T08:11:22.085Z,64.47
2019-04-06T08:14:11.039Z,70.32
2019-04-06T08:17:00.955Z,66.87
2019-04-06T08:19:50.933Z,64.92
2019-04-06T08:22:40.608Z,67.03
2019-04-06T08:25:30.191Z,67.27
2019-04-06T08:28:19.831Z,68.67
2019-04-06T08:31:09.186Z,68.22
2019-04-06T08:34:00.376Z,71.00
2019-04-06T08:36:50.197Z,65.28
2019-04-06T08:39:40.714Z,68.30
2019-04-06T08:42:30.862Z,62.60
2019-04-06T08:45:20.062Z,71.33
2019-04-06T08:48:10.177Z,68.87
2019-04-06T08:51:01.123Z,70.57
2019-04-06T08:53:50.503Z,72.75
2019-04-06T08:56:39.876Z,69.30
2019-04-06T08:59:30.838Z,66.20
2019-04-06T09:02:20.357Z,65.85
2019-04-06T09:05:11.204Z,74.92
2019-04-06T09:08:01.339Z,63.35
2019-04-06T09:10:50.872Z,59.20
2019-04-06T09:13:40.557Z,63.05
2019-04-06T09:16:29.849Z,64.62
2019-04-06T09:19:20.314Z,63.23
2019-04-06T09:22:12.365Z,62.50
2019-04-06T09:25:04.633Z,60.10
2019-04-06T09:27:54.519Z,62.83
2019-04-06T09:30:44.050Z,70.20
2019-04-06T09:33:33.720Z,70.72
2019-04-06T09:36:23.863Z,67.30
2019-04-06T09:39:14.008Z,64.85
2019-04-06T09:42:03.147Z,61.70
2019-04-06T09:44:59.079Z,64.92
2019-04-06T09:48:05.911Z,64.72
2019-04-06T09:51:32.012Z,65.08
2019-04-06T09:54:29.114Z,61.05
2019-04-06T09:57:36.625Z,61.28
2019-04-06T10:00:40.813Z,69.35
2019-04-06T10:03:51.597Z,64.00
2019-04-06T10:07:03.374Z,68.72
2019-04-06T10:10:17.186Z,67.67
2019-04-06T10:13:15.533Z,68.10
2019-04-06T10:16:13.178Z,67.08
2019-04-06T10:19:33.647Z,76.22
2019-04-06T10:22:41.653Z,74.70
2019-04-06T10:25:49.489Z,64.58
2019-04-06T10:28:51.824Z,69.42
2019-04-06T10:32:00.171Z,70.65
2019-04-06T10:35:18.042Z,68.97
2019-04-06T10:38:35.739Z,67.70
2019-04-06T10:44:37.219Z,65.00
2019-04-06T10:47:47.063Z,75.52
2019-04-06T10:50:45.627Z,65.67
2019-04-06T10:54:00.148Z,73.12
2019-04-06T10:57:09.396Z,73.40
2019-04-06T11:00:07.825Z,76.90
2019-04-06T11:03:12.715Z,77.47
2019-04-06T11:06:08.290Z,75.28
2019-04-06T11:09:15.224Z,79.95
2019-04-06T11:12:35.704Z,80.55
2019-04-06T11:15:57.232Z,77.47
2019-04-06T11:19:11.931Z,73.65
2019-04-06T11:22:17.572Z,78.97
2019-04-06T11:25:14.181Z,79.53
2019-04-06T11:28:28.718Z,78.75
2019-04-06T11:31:37.978Z,80.47
2019-04-06T11:34:45.837Z,74.75
2019-04-06T11:37:52.997Z,77.75
2019-04-06T11:40:51.170Z,77.62
2019-04-06T11:43:45.942Z,74.15
2019-04-06T11:46:52.828Z,69.50
2019-04-06T11:50:10.206Z,71.03
2019-04-06T11:53:20.600Z,71.72
2019-04-06T11:56:25.047Z,69.42
2019-04-06T11:59:21.792Z,65.80
2019-04-06T12:02:22.399Z,70.08
2019-04-06T12:05:25.184Z,75.10
2019-04-06T12:08:33.632Z,68.28
2019-04-06T12:11:39.605Z,66.97
2019-04-06T12:14:36.101Z,70.55
2019-04-06T12:17:39.417Z,64.12
2019-04-06T12:20:38.303Z,66.20
2019-04-06T12:23:45.334Z,64.35
2019-04-06T12:26:42.272Z,68.00
2019-04-06T12:30:09.095Z,69.77
2019-04-06T12:33:24.961Z,64.42
2019-04-06T12:36:25.100Z,65.60
2019-04-06T12:39:34.016Z,66.72
2019-04-06T12:42:45.948Z,67.62
2019-04-06T12:45:52.694Z,64.45
2019-04-06T12:49:01.567Z,62.53
2019-04-06T12:52:27.508Z,68.67
2019-04-06T12:55:31.443Z,64.07
2019-04-06T12:58:31.514Z,64.27
2019-04-06T13:01:43.308Z,63.80
2019-04-06T13:04:52.191Z,58.00
2019-04-06T13:08:12.453Z,69.20
2019-04-06T13:11:14.315Z,58.95
2019-04-06T13:14:23.914Z,67.32
2019-04-06T13:17:30.139Z,65.80
2019-04-06T13:20:31.202Z,56.73
2019-04-06T13:23:38.765Z,59.98
2019-04-06T13:26:53.426Z,59.93
2019-04-06T13:30:00.860Z,64.12
2019-04-06T13:33:09.252Z,64.90
2019-04-06T13:36:17.109Z,57.75
2019-04-06T13:39:24.966Z,59.90
2019-04-06T13:42:24.863Z,64.22
2019-04-06T13:45:26.856Z,59.60
2019-04-06T13:48:48.189Z,56.85
2019-04-06T13:51:48.541Z,58.05
2019-04-06T13:54:56.807Z,59.42
2019-04-06T13:58:03.762Z,59.70
2019-04-06T14:01:13.613Z,57.95
2019-04-06T14:04:13.500Z,53.87
2019-04-06T14:07:11.334Z,60.05
2019-04-06T14:10:34.275Z,59.20
2019-04-06T14:13:31.274Z,62.73
2019-04-06T14:16:30.999Z,57.98
2019-04-06T14:19:34.381Z,57.50
2019-04-06T14:22:30.828Z,58.02
2019-04-06T14:25:37.883Z,55.33
2019-04-06T14:28:45.343Z,53.63
2019-04-06T14:31:52.748Z,53.98
2019-04-06T14:35:10.860Z,58.00
2019-04-06T14:38:18.698Z,54.63
2019-04-06T14:41:25.483Z,53.05
2019-04-06T14:44:42.875Z,51.42
2019-04-06T14:47:51.221Z,47.78
2019-04-06T14:50:55.494Z,54.45
2019-04-06T14:53:57.013Z,54.03
2019-04-06T14:56:59.468Z,58.00
2019-04-06T14:59:57.166Z,52.03
2019-04-06T15:03:06.165Z,51.05
2019-04-06T15:06:12.987Z,55.50
2019-04-06T15:09:27.949Z,58.55
2019-04-06T15:12:35.814Z,53.95
2019-04-06T15:15:56.660Z,53.45
2019-04-06T15:19:10.495Z,51.85
2019-04-06T15:22:18.941Z,54.40
2019-04-06T15:25:21.478Z,55.48
2019-04-06T15:28:21.323Z,52.17
2019-04-06T15:31:29.073Z,57.10
2019-04-06T15:34:36.118Z,52.80
2019-04-06T15:37:36.537Z,52.45
2019-04-06T15:40:44.506Z,54.58
2019-04-06T15:43:47.435Z,54.40
2019-04-06T15:46:52.445Z,49.83
2019-04-06T15:50:13.056Z,57.98
2019-04-06T15:53:16.634Z,53.78
2019-04-06T15:56:28.131Z,51.80
2019-04-06T15:59:23.334Z,58.73
2019-04-06T16:02:31.311Z,54.93
2019-04-06T16:05:39.021Z,49.00
2019-04-06T16:08:50.077Z,51.55
2019-04-06T16:11:59.157Z,56.53
2019-04-06T16:15:01.380Z,55.75
2019-04-06T16:18:13.223Z,72.97
2019-04-06T16:21:33.546Z,74.72
2019-04-06T16:24:33.537Z,80.72
2019-04-06T16:27:35.594Z,74.92
2019-04-06T16:30:44.747Z,73.85
2019-04-06T16:33:43.722Z,70.35
2019-04-06T16:36:59.180Z,67.32
2019-04-06T16:40:06.226Z,71.87
2019-04-06T16:46:10.445Z,68.22
2019-04-06T16:49:07.688Z,64.55
2019-04-06T16:52:09.139Z,66.00
2019-04-06T16:55:16.633Z,71.37
2019-04-06T17:01:22.842Z,62.75
2019-04-06T17:04:29.816Z,69.92
2019-04-06T17:07:44.161Z,71.72
2019-04-06T17:10:47.295Z,65.85
2019-04-06T17:13:48.545Z,66.22
2019-04-06T17:16:56.029Z,68.15
2019-04-06T17:19:55.174Z,64.58
2019-04-06T17:23:04.352Z,63.55
2019-04-06T17:26:12.811Z,62.67
2019-04-06T17:29:15.483Z,64.62
2019-04-06T17:32:15.118Z,65.80
2019-04-06T17:35:29.078Z,66.95
2019-04-06T17:38:30.554Z,61.48
2019-04-06T17:41:45.320Z,56.92
2019-04-06T17:45:00.219Z,70.80
2019-04-06T17:48:09.316Z,59.67
2019-04-06T17:51:10.170Z,58.78
2019-04-06T17:54:14.621Z,55.20
2019-04-06T17:57:23.395Z,58.42
2019-04-06T18:00:37.932Z,58.90
2019-04-06T18:03:59.897Z,66.42
2019-04-06T18:07:21.566Z,63.92
2019-04-06T18:10:18.516Z,65.35
2019-04-06T18:13:16.251Z,60.00
2019-04-06T18:16:07.181Z,56.35
2019-04-06T18:18:56.509Z,59.55
2019-04-06T18:21:49.158Z,62.98
2019-04-06T18:24:39.496Z,62.20
2019-04-06T18:27:29.884Z,59.48
2019-04-06T18:30:21.294Z,56.65
2019-04-06T18:33:17.685Z,59.63
2019-04-06T18:36:07.359Z,61.33
2019-04-06T18:39:01.744Z,56.88
2019-04-06T18:41:55.167Z,59.15
2019-04-06T18:44:48.624Z,58.35
2019-04-06T18:47:38.173Z,58.10
2019-04-06T18:50:35.984Z,60.43
2019-04-06T18:53:22.718Z,54.48
2019-04-06T18:56:14.095Z,59.50
2019-04-06T18:59:05.284Z,57.38
2019-04-06T19:01:55.407Z,56.58
2019-04-06T19:04:47.617Z,61.33
2019-04-06T19:07:37.106Z,53.23
2019-04-06T19:10:34.251Z,56.60
2019-04-06T19:13:24.069Z,55.30
2019-04-06T19:16:14.345Z,56.73
2019-04-06T19:19:06.215Z,54.00
2019-04-06T19:21:55.656Z,52.60
2019-04-06T19:24:48.104Z,56.00
2019-04-06T19:27:40.680Z,58.28
2019-04-06T19:30:30.624Z,53.95
2019-04-06T19:33:25.075Z,52.90
2019-04-06T19:36:14.712Z,58.98
2019-04-06T19:39:06.983Z,55.15
2019-04-06T19:41:59.721Z,53.13
2019-04-06T19:44:53.624Z,52.93
2019-04-06T19:47:43.627Z,55.35
2019-04-06T19:50:38.200Z,52.43
2019-04-06T19:53:29.255Z,56.68
2019-04-06T19:56:19.149Z,57.73
2019-04-06T19:59:12.838Z,57.98
2019-04-06T20:02:03.598Z,54.60
2019-04-06T20:04:54.776Z,56.45
2019-04-06T20:07:47.128Z,55.03
2019-04-06T20:10:39.623Z,52.95
2019-04-06T20:13:35.172Z,51.88
2019-04-06T20:16:26.716Z,54.50
2019-04-06T20:19:16.265Z,57.75
2019-04-06T20:22:06.444Z,54.27
2019-04-06T20:24:59.343Z,56.77
2019-04-06T20:27:52.289Z,51.70
2019-04-06T20:30:44.712Z,53.98
2019-04-06T20:33:48.405Z,56.33
2019-04-06T20:36:31.800Z,55.43
2019-04-06T20:39:24.145Z,56.80
2019-04-06T20:42:15.577Z,55.58
2019-04-06T20:45:07.090Z,59.15
2019-04-06T20:48:00.773Z,58.92
2019-04-06T20:50:51.077Z,55.45
2019-04-06T20:53:44.169Z,54.35
2019-04-06T20:56:34.271Z,53.60
2019-04-06T20:59:28.339Z,61.70
2019-04-06T21:02:19.818Z,56.70
2019-04-06T21:05:11.363Z,53.05
2019-04-06T21:08:01.336Z,58.42
2019-04-06T21:10:53.300Z,54.98
2019-04-06T21:13:52.833Z,55.95
2019-04-06T21:16:42.509Z,56.05
2019-04-06T21:19:33.977Z,53.17
2019-04-06T21:22:24.956Z,57.48
2019-04-06T21:25:16.555Z,53.73
2019-04-06T21:28:06.666Z,58.25
2019-04-06T21:30:56.470Z,54.25
2019-04-06T21:33:47.388Z,56.13
2019-04-06T21:36:38.022Z,54.75
2019-04-06T21:39:27.908Z,49.45
2019-04-06T21:42:18.264Z,52.25
2019-04-06T21:45:11.356Z,53.45
2019-04-06T21:48:00.796Z,53.05
2019-04-06T21:50:53.435Z,52.48
2019-04-06T21:53:48.001Z,52.90
2019-04-06T21:56:39.747Z,51.28
2019-04-06T21:59:30.409Z,54.53
2019-04-06T22:02:20.131Z,54.95
2019-04-06T22:05:10.289Z,49.90
2019-04-06T22:08:01.322Z,52.88
2019-04-06T22:10:50.906Z,52.17
2019-04-06T22:13:40.176Z,55.33
2019-04-06T22:16:30.473Z,52.00
2019-04-06T22:19:20.239Z,54.35
2019-04-06T22:22:10.219Z,52.45
2019-04-06T22:24:59.770Z,54.35
2019-04-06T22:27:50.617Z,50.15
2019-04-06T22:30:40.914Z,52.70
2019-04-06T22:33:35.791Z,52.45
2019-04-06T22:36:24.776Z,55.52
2019-04-06T22:39:14.468Z,48.55
2019-04-06T22:42:06.196Z,51.90
2019-04-06T22:44:56.037Z,49.20
2019-04-06T22:47:46.293Z,50.88
2019-04-06T22:50:36.558Z,51.08
2019-04-06T22:53:25.879Z,49.75
2019-04-06T22:56:15.896Z,50.83
2019-04-06T22:59:07.463Z,50.03
2019-04-06T23:01:57.267Z,54.53
2019-04-06T23:04:57.600Z,50.83
2019-04-06T23:07:46.779Z,48.78
2019-04-06T23:10:37.293Z,49.77
2019-04-06T23:13:26.941Z,49.93
2019-04-06T23:16:17.035Z,48.48
2019-04-06T23:19:06.383Z,54.35
2019-04-06T23:21:55.720Z,49.15
2019-04-06T23:24:45.446Z,53.80
2019-04-06T23:27:35.322Z,50.78
2019-04-06T23:30:24.921Z,49.77
2019-04-06T23:33:14.285Z,49.67
2019-04-06T23:36:03.844Z,49.10
2019-04-06T23:38:53.237Z,50.73
2019-04-06T23:41:42.745Z,47.93
2019-04-06T23:44:33.012Z,47.35
2019-04-06T23:47:22.043Z,46.50
2019-04-06T23:50:11.368Z,44.10
2019-04-06T23:53:01.368Z,42.23
2019-04-06T23:55:51.780Z,45.78
2019-04-06T23:58:42.080Z,44.27
